Time;durP1;ratioP1;P1;durP2;ratioP2;P2;SDS_P1;SDS_P2;PMS_P1;PMS_P2;Temp;Humidity;BMP_temperature;BMP_pressure;BME280_temperature;BME280_humidity;BME280_pressure;Samples;Min_cycle;Max_cycle;Signal;HPM_P1;HPM_P2
2022/12/27 00:02:30;;;;;;;53.60;32.50;;;;;;;;;;6261071;28;20056;-72
2022/12/27 00:05:31;;;;;;;54.63;33.70;;;;;;;;;;6263047;28;20064;-72
2022/12/27 00:08:33;;;;;;;53.22;32.35;;;;;;;;;;6262946;28;20057;-71
2022/12/27 00:11:36;;;;;;;53.47;32.75;;;;;;;;;;6269258;28;20061;-72
2022/12/27 00:14:38;;;;;;;57.50;34.90;;;;;;;;;;6265565;28;20095;-72
2022/12/27 00:17:39;;;;;;;56.22;33.03;;;;;;;;;;6263889;28;20066;-72
2022/12/27 00:20:41;;;;;;;57.65;34.95;;;;;;;;;;6262816;28;20076;-73
2022/12/27 00:23:45;;;;;;;57.63;33.97;;;;;;;;;;6265955;28;20098;-72
2022/12/27 00:26:48;;;;;;;53.45;32.58;;;;;;;;;;6266559;28;20057;-72
2022/12/27 00:29:50;;;;;;;54.80;34.22;;;;;;;;;;6266698;28;20102;-72
2022/12/27 00:32:52;;;;;;;57.38;35.63;;;;;;;;;;6264410;28;20049;-72
2022/12/27 00:35:54;;;;;;;54.45;33.65;;;;;;;;;;6264953;28;20352;-72
2022/12/27 00:38:57;;;;;;;55.67;33.97;;;;;;;;;;6266377;28;20049;-73
2022/12/27 00:42:00;;;;;;;58.72;34.95;;;;;;;;;;6265401;28;20076;-73
2022/12/27 00:45:02;;;;;;;58.47;35.83;;;;;;;;;;6267286;28;20053;-72
2022/12/27 00:48:04;;;;;;;58.47;35.40;;;;;;;;;;6266980;28;20053;-72
2022/12/27 00:51:08;;;;;;;52.03;33.50;;;;;;;;;;6264880;28;20049;-72
2022/12/27 00:54:09;;;;;;;58.60;35.15;;;;;;;;;;6264787;28;20351;-72
2022/12/27 00:57:12;;;;;;;58.13;35.28;;;;;;;;;;6264693;28;20053;-72
2022/12/27 01:00:15;;;;;;;57.10;34.22;;;;;;;;;;6266037;28;20044;-72
2022/12/27 01:03:18;;;;;;;56.00;35.22;;;;;;;;;;6268480;28;20287;-72
2022/12/27 01:06:21;;;;;;;56.55;33.50;;;;;;;;;;6268153;28;20041;-72
2022/12/27 01:09:23;;;;;;;59.05;34.95;;;;;;;;;;6263022;28;20096;-72
2022/12/27 01:12:26;;;;;;;59.50;34.80;;;;;;;;;;6265475;28;20045;-72
2022/12/27 01:15:28;;;;;;;59.67;35.60;;;;;;;;;;6266248;28;20118;-72
2022/12/27 01:18:30;;;;;;;56.38;34.78;;;;;;;;;;6263011;28;20053;-72
2022/12/27 01:21:31;;;;;;;63.63;36.15;;;;;;;;;;6265673;28;20049;-72
2022/12/27 01:24:33;;;;;;;56.85;34.92;;;;;;;;;;6265301;28;20352;-71
2022/12/27 01:27:37;;;;;;;60.65;35.20;;;;;;;;;;6266022;28;20062;-73
2022/12/27 01:30:38;;;;;;;64.93;37.83;;;;;;;;;;6263093;28;20076;-72
2022/12/27 01:33:40;;;;;;;59.03;35.50;;;;;;;;;;6264310;28;20103;-72
2022/12/27 01:36:42;;;;;;;59.15;34.33;;;;;;;;;;6264586;28;20053;-72
2022/12/27 01:39:44;;;;;;;57.03;34.65;;;;;;;;;;6262963;28;20269;-73
2022/12/27 01:42:52;;;;;;;55.28;35.28;;;;;;;;;;6265705;28;20114;-72
2022/12/27 01:45:53;;;;;;;57.13;35.22;;;;;;;;;;6265294;28;20053;-72
2022/12/27 01:48:56;;;;;;;62.42;35.42;;;;;;;;;;6266455;28;20048;-71
2022/12/27 01:51:58;;;;;;;62.63;37.25;;;;;;;;;;6263525;28;20060;-71
2022/12/27 01:55:03;;;;;;;58.05;35.72;;;;;;;;;;6264015;28;20217;-72
2022/12/27 01:58:10;;;;;;;60.92;34.53;;;;;;;;;;6265905;28;20273;-72
2022/12/27 02:01:15;;;;;;;59.15;35.33;;;;;;;;;;6264656;28;20048;-72
2022/12/27 02:04:20;;;;;;;62.00;35.58;;;;;;;;;;6263258;28;20053;-73
2022/12/27 02:07:21;;;;;;;;;;;;;;;;;;6268298;28;20320;-72
2022/12/27 02:10:23;;;;;;;56.45;33.67;;;;;;;;;;6262995;28;19925;-71
2022/12/27 02:13:27;;;;;;;60.63;34.60;;;;;;;;;;6264461;28;20073;-72
2022/12/27 02:16:29;;;;;;;59.88;35.50;;;;;;;;;;6265263;28;20060;-72
2022/12/27 02:19:35;;;;;;;53.75;33.78;;;;;;;;;;6261898;28;20052;-73
2022/12/27 02:26:53;;;;;;;57.33;35.28;;;;;;;;;;6264092;28;20384;-72
2022/12/27 02:30:02;;;;;;;55.20;33.15;;;;;;;;;;6247883;28;20053;-72
2022/12/27 02:33:07;;;;;;;60.28;35.53;;;;;;;;;;6259909;28;20065;-72
2022/12/27 02:36:12;;;;;;;57.95;34.65;;;;;;;;;;6262166;28;20053;-72
2022/12/27 02:39:15;;;;;;;59.97;35.08;;;;;;;;;;6260100;28;20255;-71
2022/12/27 02:59:32;;;;;;;56.35;33.25;;;;;;;;;;6263030;28;20057;-71
2022/12/27 03:16:56;;;;;;;50.25;32.17;;;;;;;;;;6266351;28;20229;-73
2022/12/27 03:26:42;;;;;;;47.67;30.83;;;;;;;;;;6268484;28;20053;-72
2022/12/27 03:33:12;;;;;;;51.38;31.17;;;;;;;;;;6271085;28;20052;-73
2022/12/27 03:39:42;;;;;;;49.92;30.73;;;;;;;;;;6269119;28;20056;-73
2022/12/27 03:49:38;;;;;;;53.28;31.08;;;;;;;;;;6266944;28;20041;-73
2022/12/27 03:52:43;;;;;;;52.20;33.25;;;;;;;;;;6266197;28;20387;-72
2022/12/27 03:55:45;;;;;;;50.47;31.13;;;;;;;;;;6266789;28;20053;-72
2022/12/27 03:58:47;;;;;;;50.63;32.25;;;;;;;;;;6265521;28;20063;-73
2022/12/27 04:01:49;;;;;;;52.47;32.50;;;;;;;;;;6265142;28;20053;-72
2022/12/27 04:04:50;;;;;;;44.78;30.00;;;;;;;;;;6265538;28;20060;-73
2022/12/27 04:34:42;;;;;;;43.33;29.10;;;;;;;;;;6268595;28;20050;-72
2022/12/27 04:37:43;;;;;;;45.53;29.65;;;;;;;;;;6265607;28;20071;-71
2022/12/27 04:57:23;;;;;;;43.20;29.52;;;;;;;;;;6265547;28;20057;-70
2022/12/27 05:03:49;;;;;;;41.60;28.15;;;;;;;;;;6264773;28;20060;-70
2022/12/27 05:06:51;;;;;;;41.58;27.60;;;;;;;;;;6266905;28;20053;-73
2022/12/27 05:16:35;;;;;;;39.88;27.25;;;;;;;;;;6242181;28;20472;-70
2022/12/27 05:19:37;;;;;;;38.35;27.02;;;;;;;;;;6261067;28;20065;-70
2022/12/27 05:25:58;;;;;;;39.83;27.13;;;;;;;;;;6262037;28;20065;-70
2022/12/27 05:29:01;;;;;;;38.25;26.10;;;;;;;;;;6263020;28;20041;-71
2022/12/27 05:32:03;;;;;;;39.70;26.40;;;;;;;;;;6265887;28;20056;-69
2022/12/27 05:35:06;;;;;;;40.35;26.73;;;;;;;;;;6263333;28;20103;-70
2022/12/27 05:38:07;;;;;;;42.20;27.33;;;;;;;;;;6267737;28;20052;-71
2022/12/27 05:41:09;;;;;;;39.88;26.98;;;;;;;;;;6265992;28;20202;-71
2022/12/27 05:44:12;;;;;;;38.75;25.55;;;;;;;;;;6269631;28;20129;-71
2022/12/27 05:47:14;;;;;;;40.83;26.20;;;;;;;;;;6270166;28;20241;-71
2022/12/27 05:50:15;;;;;;;36.67;26.27;;;;;;;;;;6270309;28;20061;-71
2022/12/27 05:53:17;;;;;;;36.42;25.88;;;;;;;;;;6262723;28;20433;-71
2022/12/27 05:56:20;;;;;;;35.30;25.42;;;;;;;;;;6264838;28;20057;-72
2022/12/27 05:59:23;;;;;;;36.55;26.02;;;;;;;;;;6268574;28;20045;-73
2022/12/27 06:02:25;;;;;;;37.40;25.30;;;;;;;;;;6264954;28;20045;-73
2022/12/27 06:05:27;;;;;;;40.13;26.75;;;;;;;;;;6260524;28;20053;-72
2022/12/27 06:08:29;;;;;;;35.15;24.80;;;;;;;;;;6261804;28;20053;-72
2022/12/27 06:11:30;;;;;;;36.25;24.40;;;;;;;;;;6263493;28;20053;-72
2022/12/27 06:14:34;;;;;;;30.88;23.45;;;;;;;;;;6260947;28;20049;-73
2022/12/27 06:17:35;;;;;;;34.53;24.75;;;;;;;;;;6260958;28;20058;-72
2022/12/27 06:20:37;;;;;;;36.05;25.23;;;;;;;;;;6263336;28;20056;-71
2022/12/27 06:23:40;;;;;;;35.72;24.00;;;;;;;;;;6263653;28;20061;-72
2022/12/27 06:26:42;;;;;;;36.72;24.08;;;;;;;;;;6264267;28;20123;-71
2022/12/27 06:29:45;;;;;;;35.08;24.50;;;;;;;;;;6265194;28;20051;-73
2022/12/27 06:32:46;;;;;;;36.60;23.98;;;;;;;;;;6263893;28;20185;-73
2022/12/27 06:35:48;;;;;;;40.75;23.30;;;;;;;;;;6267123;28;20359;-73
2022/12/27 06:38:50;;;;;;;32.83;21.20;;;;;;;;;;6262816;28;20041;-72
2022/12/27 06:41:54;;;;;;;30.67;21.08;;;;;;;;;;6268711;28;20325;-73
2022/12/27 06:44:57;;;;;;;30.02;22.25;;;;;;;;;;6265037;28;20340;-73
2022/12/27 06:47:58;;;;;;;35.65;23.85;;;;;;;;;;6260921;28;20074;-73
2022/12/27 06:51:03;;;;;;;35.88;23.92;;;;;;;;;;6262600;28;20051;-73
2022/12/27 06:54:05;;;;;;;36.30;24.67;;;;;;;;;;6260235;28;20045;-73
2022/12/27 06:57:06;;;;;;;42.05;25.90;;;;;;;;;;6263681;28;20202;-73
2022/12/27 07:00:12;;;;;;;38.45;25.55;;;;;;;;;;6261244;28;20178;-73
2022/12/27 07:03:13;;;;;;;40.60;26.08;;;;;;;;;;6261136;28;20452;-72
2022/12/27 07:06:15;;;;;;;40.05;26.50;;;;;;;;;;6263847;28;20068;-73
2022/12/27 07:09:17;;;;;;;37.10;26.17;;;;;;;;;;6268301;28;20057;-73
2022/12/27 07:12:18;;;;;;;43.83;27.17;;;;;;;;;;6266939;28;20210;-72
2022/12/27 07:15:22;;;;;;;38.53;26.55;;;;;;;;;;6265644;28;20060;-73
2022/12/27 07:18:23;;;;;;;37.72;25.80;;;;;;;;;;6265428;28;20041;-72
2022/12/27 07:21:27;;;;;;;38.45;26.95;;;;;;;;;;6267444;28;20282;-73
2022/12/27 07:24:31;;;;;;;39.73;26.87;;;;;;;;;;6264597;28;20142;-72
2022/12/27 07:27:33;;;;;;;39.17;27.08;;;;;;;;;;6268274;28;20056;-73
2022/12/27 07:30:39;;;;;;;39.00;26.00;;;;;;;;;;6266147;28;20049;-73
2022/12/27 07:33:41;;;;;;;40.85;28.20;;;;;;;;;;6266071;28;20050;-73
2022/12/27 07:36:43;;;;;;;38.92;26.65;;;;;;;;;;6267342;28;20166;-73
2022/12/27 07:39:45;;;;;;;39.75;26.35;;;;;;;;;;6269148;28;20233;-72
2022/12/27 07:42:47;;;;;;;42.25;26.92;;;;;;;;;;6267363;28;20052;-73
2022/12/27 07:45:50;;;;;;;41.40;27.45;;;;;;;;;;6264510;28;20329;-76
2022/12/27 07:48:54;;;;;;;36.58;25.27;;;;;;;;;;6270420;28;20052;-74
2022/12/27 07:51:55;;;;;;;35.05;24.02;;;;;;;;;;6266615;28;20946;-72
2022/12/27 07:54:57;;;;;;;29.50;21.83;;;;;;;;;;6268673;28;20037;-73
2022/12/27 07:57:59;;;;;;;28.65;20.67;;;;;;;;;;6266238;28;20059;-73
2022/12/27 08:01:03;;;;;;;32.22;22.75;;;;;;;;;;6268373;28;20099;-75
2022/12/27 08:04:04;;;;;;;;;;;;;;;;;;6265888;28;20056;-72
2022/12/27 08:07:09;;;;;;;26.08;19.98;;;;;;;;;;6271747;28;19979;-72
2022/12/27 08:10:10;;;;;;;;;;;;;;;;;;6268863;28;20053;-73
2022/12/27 08:13:12;;;;;;;29.75;20.00;;;;;;;;;;6267228;28;19923;-73
2022/12/27 08:16:19;;;;;;;28.27;20.50;;;;;;;;;;6268800;28;20352;-73
2022/12/27 08:19:20;;;;;;;28.75;20.40;;;;;;;;;;6264694;28;20057;-72
2022/12/27 08:22:23;;;;;;;31.30;21.98;;;;;;;;;;6266106;28;20057;-75
2022/12/27 08:25:25;;;;;;;27.88;19.80;;;;;;;;;;6268631;28;20053;-73
2022/12/27 08:28:30;;;;;;;26.52;19.95;;;;;;;;;;6263456;28;20045;-73
2022/12/27 08:31:33;;;;;;;28.17;20.80;;;;;;;;;;6268548;28;20108;-73
2022/12/27 08:34:34;;;;;;;27.10;20.40;;;;;;;;;;6264277;28;20221;-73
2022/12/27 08:37:36;;;;;;;26.52;20.08;;;;;;;;;;6266986;28;20119;-73
2022/12/27 08:40:40;;;;;;;24.67;19.50;;;;;;;;;;6266951;28;20067;-74
2022/12/27 08:43:42;;;;;;;27.85;20.10;;;;;;;;;;6267216;28;20053;-73
2022/12/27 08:46:45;;;;;;;26.73;19.73;;;;;;;;;;6267404;28;20095;-73
2022/12/27 08:49:47;;;;;;;26.13;18.75;;;;;;;;;;6265137;28;20060;-73
2022/12/27 08:52:48;;;;;;;23.92;18.23;;;;;;;;;;6264677;28;20056;-73
2022/12/27 08:55:50;;;;;;;27.20;18.65;;;;;;;;;;6263743;28;20128;-73
2022/12/27 08:58:52;;;;;;;25.08;18.65;;;;;;;;;;6263631;28;20045;-73
2022/12/27 09:01:55;;;;;;;28.17;18.25;;;;;;;;;;6266019;28;20045;-73
2022/12/27 09:04:56;;;;;;;24.58;17.65;;;;;;;;;;6264992;28;20064;-72
2022/12/27 09:07:58;;;;;;;23.50;16.88;;;;;;;;;;6265219;28;20154;-72
2022/12/27 09:11:08;;;;;;;23.08;16.13;;;;;;;;;;6264402;28;20049;-73
2022/12/27 09:14:09;;;;;;;22.27;16.67;;;;;;;;;;6264971;28;20332;-73
2022/12/27 09:17:13;;;;;;;22.38;16.50;;;;;;;;;;6263375;28;20056;-73
2022/12/27 09:20:14;;;;;;;24.38;15.52;;;;;;;;;;6265020;28;20355;-73
2022/12/27 09:23:16;;;;;;;20.40;17.27;;;;;;;;;;6263822;28;20060;-73
2022/12/27 09:26:19;;;;;;;23.45;17.38;;;;;;;;;;6265670;28;20046;-73
2022/12/27 09:29:21;;;;;;;22.23;17.02;;;;;;;;;;6265397;28;20053;-74
2022/12/27 09:32:26;;;;;;;22.80;16.90;;;;;;;;;;6264286;28;20120;-73
2022/12/27 09:35:27;;;;;;;24.13;16.52;;;;;;;;;;6266239;28;20052;-72
2022/12/27 09:38:29;;;;;;;22.90;17.02;;;;;;;;;;6264139;28;20084;-73
2022/12/27 09:41:41;;;;;;;22.95;17.20;;;;;;;;;;6270261;28;20158;-72
2022/12/27 09:44:49;;;;;;;23.85;16.92;;;;;;;;;;6263516;28;20103;-73
2022/12/27 09:47:55;;;;;;;22.92;17.52;;;;;;;;;;6263554;28;20049;-74
2022/12/27 09:50:59;;;;;;;20.55;17.17;;;;;;;;;;6265198;28;20065;-74
2022/12/27 09:54:04;;;;;;;23.60;17.80;;;;;;;;;;6262634;28;20141;-73
2022/12/27 09:57:16;;;;;;;22.02;17.55;;;;;;;;;;6263548;28;20057;-73
2022/12/27 10:00:20;;;;;;;23.80;18.38;;;;;;;;;;6263343;28;20049;-72
2022/12/27 10:03:24;;;;;;;;;;;;;;;;;;6264932;28;20053;-73
2022/12/27 10:06:47;;;;;;;19.42;15.35;;;;;;;;;;6264168;28;19917;-71
2022/12/27 10:09:56;;;;;;;18.77;15.00;;;;;;;;;;6262785;28;20064;-74
2022/12/27 10:13:20;;;;;;;22.83;16.58;;;;;;;;;;6263971;28;20116;-72
2022/12/27 10:16:27;;;;;;;20.42;15.50;;;;;;;;;;6265416;28;20487;-73
2022/12/27 10:19:38;;;;;;;16.73;14.45;;;;;;;;;;6266903;28;20244;-72
2022/12/27 10:22:45;;;;;;;16.90;13.50;;;;;;;;;;6258332;28;20469;-73
2022/12/27 10:25:47;;;;;;;18.23;14.40;;;;;;;;;;6260536;28;20124;-73
2022/12/27 10:28:53;;;;;;;19.75;15.77;;;;;;;;;;6261840;28;20060;-75
2022/12/27 10:31:55;;;;;;;22.48;17.52;;;;;;;;;;6263008;28;20325;-73
2022/12/27 10:35:00;;;;;;;21.02;17.40;;;;;;;;;;6261165;28;20088;-73
2022/12/27 10:38:02;;;;;;;22.85;17.65;;;;;;;;;;6259560;28;20735;-73
2022/12/27 10:41:15;;;;;;;22.20;17.08;;;;;;;;;;6265152;28;20049;-73
2022/12/27 10:44:17;;;;;;;20.02;17.13;;;;;;;;;;6267004;28;20048;-73
2022/12/27 10:47:19;;;;;;;23.42;18.75;;;;;;;;;;6266166;28;20057;-73
2022/12/27 10:50:23;;;;;;;20.42;18.08;;;;;;;;;;6267575;28;20052;-74
2022/12/27 10:53:37;;;;;;;22.38;17.50;;;;;;;;;;6269531;28;20053;-74
2022/12/27 10:56:40;;;;;;;20.05;17.13;;;;;;;;;;6268685;28;20060;-72
2022/12/27 10:59:42;;;;;;;18.65;15.98;;;;;;;;;;6267761;28;20056;-74
2022/12/27 11:02:50;;;;;;;19.50;16.33;;;;;;;;;;6271951;28;20080;-73
2022/12/27 11:06:02;;;;;;;22.02;16.10;;;;;;;;;;6269071;28;20296;-74
2022/12/27 11:09:20;;;;;;;18.88;16.17;;;;;;;;;;6265514;28;20045;-72
2022/12/27 11:12:24;;;;;;;21.80;17.08;;;;;;;;;;6267873;28;20112;-74
2022/12/27 11:15:26;;;;;;;17.73;15.82;;;;;;;;;;6267082;28;20044;-74
2022/12/27 11:18:28;;;;;;;22.80;17.00;;;;;;;;;;6226184;28;1204503;-74
2022/12/27 11:21:32;;;;;;;19.95;16.52;;;;;;;;;;6269377;28;20065;-74
2022/12/27 11:24:34;;;;;;;20.40;17.25;;;;;;;;;;6266949;28;20321;-74
2022/12/27 11:27:36;;;;;;;21.17;16.45;;;;;;;;;;6269416;28;20332;-74
2022/12/27 11:30:40;;;;;;;22.67;15.57;;;;;;;;;;6266638;28;20052;-73
2022/12/27 11:33:46;;;;;;;17.15;14.98;;;;;;;;;;6266012;28;20071;-73
2022/12/27 11:36:51;;;;;;;20.25;15.52;;;;;;;;;;6270137;28;20053;-73
2022/12/27 11:39:54;;;;;;;23.05;15.45;;;;;;;;;;6269263;28;20241;-74
2022/12/27 11:43:03;;;;;;;16.52;14.00;;;;;;;;;;6267493;28;20076;-74
2022/12/27 11:46:10;;;;;;;18.83;14.02;;;;;;;;;;6265488;28;20417;-74
2022/12/27 11:49:17;;;;;;;19.83;14.25;;;;;;;;;;6269761;28;20064;-74
2022/12/27 11:52:42;;;;;;;16.00;13.13;;;;;;;;;;6267424;28;20053;-74
2022/12/27 11:55:54;;;;;;;15.68;13.68;;;;;;;;;;6267884;28;20057;-74
2022/12/27 11:59:18;;;;;;;15.75;13.45;;;;;;;;;;6266030;28;20048;-75
2022/12/27 12:02:51;;;;;;;14.85;12.40;;;;;;;;;;6268615;28;20060;-74
2022/12/27 12:06:08;;;;;;;15.23;12.55;;;;;;;;;;6256209;28;20106;-74
2022/12/27 12:09:28;;;;;;;16.17;12.60;;;;;;;;;;6264285;28;20258;-72
2022/12/27 12:12:51;;;;;;;15.45;12.13;;;;;;;;;;6265522;28;20045;-74
2022/12/27 12:16:32;;;;;;;14.30;11.83;;;;;;;;;;6266803;28;20053;-74
2022/12/27 12:19:45;;;;;;;15.70;11.88;;;;;;;;;;6267465;28;21021;-73
2022/12/27 12:23:00;;;;;;;12.20;10.88;;;;;;;;;;6266432;28;20174;-76
2022/12/27 12:26:11;;;;;;;15.13;11.63;;;;;;;;;;6264028;28;20090;-76
2022/12/27 12:29:31;;;;;;;15.38;10.95;;;;;;;;;;6267149;28;20586;-76
2022/12/27 12:32:36;;;;;;;12.88;11.25;;;;;;;;;;6263233;28;20056;-75
2022/12/27 12:35:46;;;;;;;14.13;11.25;;;;;;;;;;6265438;28;20057;-76
2022/12/27 12:38:52;;;;;;;13.98;11.70;;;;;;;;;;6269655;28;20048;-76
2022/12/27 12:42:15;;;;;;;13.10;11.77;;;;;;;;;;6274366;28;20054;-80
2022/12/27 12:45:27;;;;;;;13.73;10.35;;;;;;;;;;6268924;28;20051;-76
2022/12/27 12:48:47;;;;;;;12.55;11.20;;;;;;;;;;6270501;28;20044;-79
2022/12/27 12:52:14;;;;;;;15.73;11.55;;;;;;;;;;6269666;28;20049;-75
2022/12/27 12:55:38;;;;;;;14.25;10.88;;;;;;;;;;6262916;28;20048;-76
2022/12/27 12:58:51;;;;;;;13.10;10.25;;;;;;;;;;6267734;28;20091;-79
2022/12/27 13:02:02;;;;;;;17.20;10.73;;;;;;;;;;6271917;28;20057;-77
2022/12/27 13:05:11;;;;;;;13.07;10.43;;;;;;;;;;6270936;28;20127;-77
2022/12/27 13:08:18;;;;;;;9.35;8.35;;;;;;;;;;6271690;28;20049;-76
2022/12/27 13:11:26;;;;;;;12.13;8.85;;;;;;;;;;6269279;28;20177;-76
2022/12/27 13:14:54;;;;;;;11.95;8.77;;;;;;;;;;6264448;28;20273;-77
2022/12/27 13:18:04;;;;;;;14.18;8.90;;;;;;;;;;6269351;28;20096;-77
2022/12/27 13:21:12;;;;;;;13.02;8.90;;;;;;;;;;6265827;28;20042;-77
2022/12/27 13:24:23;;;;;;;11.38;9.05;;;;;;;;;;6265951;28;20045;-77
2022/12/27 13:27:30;;;;;;;10.65;8.52;;;;;;;;;;6270000;28;20071;-79
2022/12/27 13:30:39;;;;;;;8.98;7.80;;;;;;;;;;6266774;28;20340;-77
2022/12/27 13:33:47;;;;;;;12.80;7.93;;;;;;;;;;6273370;28;20328;-74
2022/12/27 13:37:11;;;;;;;8.80;6.90;;;;;;;;;;6268469;28;20053;-77
2022/12/27 13:40:35;;;;;;;9.52;7.22;;;;;;;;;;6264714;28;20135;-77
2022/12/27 13:43:59;;;;;;;10.20;5.90;;;;;;;;;;6270582;28;20120;-78
2022/12/27 13:47:29;;;;;;;8.30;6.57;;;;;;;;;;6251315;28;20063;-75
2022/12/27 13:51:03;;;;;;;7.00;5.78;;;;;;;;;;6269058;28;20049;-75
2022/12/27 13:54:38;;;;;;;10.25;6.30;;;;;;;;;;6252070;28;20083;-75
2022/12/27 13:57:57;;;;;;;;;;;;;;;;;;6267198;28;20053;-75
2022/12/27 14:01:10;;;;;;;9.23;6.47;;;;;;;;;;6260997;28;20171;-74
2022/12/27 14:04:29;;;;;;;8.45;6.53;;;;;;;;;;6262298;28;20049;-76
2022/12/27 14:07:51;;;;;;;6.70;5.60;;;;;;;;;;6265754;28;20049;-76
2022/12/27 14:10:53;;;;;;;6.90;5.30;;;;;;;;;;6262945;28;20056;-75
2022/12/27 14:13:56;;;;;;;9.90;7.60;;;;;;;;;;6264754;28;20095;-76
2022/12/27 14:17:11;;;;;;;22.80;18.67;;;;;;;;;;6261422;28;20084;-76
2022/12/27 14:20:27;;;;;;;22.35;18.52;;;;;;;;;;6251167;28;20045;-76
2022/12/27 14:24:04;;;;;;;22.67;19.13;;;;;;;;;;6261128;28;20107;-75
2022/12/27 14:27:48;;;;;;;21.92;19.63;;;;;;;;;;6263229;28;20308;-76
2022/12/27 14:31:28;;;;;;;23.75;18.77;;;;;;;;;;6260971;28;20049;-77
2022/12/27 14:34:49;;;;;;;21.90;19.00;;;;;;;;;;6264617;28;20053;-76
2022/12/27 14:38:42;;;;;;;22.05;19.60;;;;;;;;;;6262561;28;20060;-75
2022/12/27 14:42:14;;;;;;;21.23;18.63;;;;;;;;;;6252774;28;20356;-77
2022/12/27 14:45:41;;;;;;;22.95;20.48;;;;;;;;;;6261621;28;20118;-75
2022/12/27 14:49:10;;;;;;;25.52;21.58;;;;;;;;;;6254035;28;20329;-75
2022/12/27 14:52:44;;;;;;;29.58;22.83;;;;;;;;;;6264376;28;20053;-75
2022/12/27 14:56:03;;;;;;;26.58;23.08;;;;;;;;;;6263409;28;20268;-75
2022/12/27 14:59:18;;;;;;;27.42;24.10;;;;;;;;;;6257737;28;20053;-76
2022/12/27 15:02:43;;;;;;;30.60;22.77;;;;;;;;;;6266197;28;20095;-75
2022/12/27 15:05:55;;;;;;;28.63;23.38;;;;;;;;;;6260828;28;20061;-78
2022/12/27 15:09:02;;;;;;;29.80;23.83;;;;;;;;;;6264515;28;20065;-78
2022/12/27 15:12:18;;;;;;;27.55;23.83;;;;;;;;;;6259200;28;20049;-78
2022/12/27 15:15:27;;;;;;;30.38;24.17;;;;;;;;;;6263826;28;20054;-77
2022/12/27 15:18:56;;;;;;;29.88;24.10;;;;;;;;;;6264732;28;20099;-78
2022/12/27 15:22:01;;;;;;;37.35;25.33;;;;;;;;;;6241194;28;20049;-78
2022/12/27 15:25:15;;;;;;;32.92;25.23;;;;;;;;;;6260542;28;20053;-77
2022/12/27 15:28:25;;;;;;;37.08;27.70;;;;;;;;;;6257954;28;20243;-77
2022/12/27 15:31:34;;;;;;;35.33;27.13;;;;;;;;;;6269980;28;20053;-70
2022/12/27 15:34:44;;;;;;;36.40;27.15;;;;;;;;;;6267638;28;20283;-77
2022/12/27 15:38:08;;;;;;;39.05;27.65;;;;;;;;;;6269381;28;20091;-75
2022/12/27 15:41:23;;;;;;;38.88;29.48;;;;;;;;;;6270722;28;20052;-74
2022/12/27 15:44:42;;;;;;;40.17;27.80;;;;;;;;;;6266977;28;20111;-78
2022/12/27 15:47:57;;;;;;;42.13;29.92;;;;;;;;;;6269332;28;20102;-73
2022/12/27 15:51:01;;;;;;;42.03;29.70;;;;;;;;;;6268812;28;20096;-78
2022/12/27 15:54:14;;;;;;;45.80;31.63;;;;;;;;;;6267076;28;20053;-76
2022/12/27 15:57:49;;;;;;;47.63;32.33;;;;;;;;;;6269976;28;20037;-78
2022/12/27 16:01:26;;;;;;;51.92;32.10;;;;;;;;;;6239117;28;20056;-74
2022/12/27 16:04:47;;;;;;;47.80;32.42;;;;;;;;;;6262089;28;20321;-78
2022/12/27 16:07:50;;;;;;;44.50;31.55;;;;;;;;;;6265434;28;20065;-76
2022/12/27 16:10:53;;;;;;;43.28;31.17;;;;;;;;;;6268323;28;20075;-76
2022/12/27 16:14:22;;;;;;;47.85;29.48;;;;;;;;;;6270235;28;20044;-75
2022/12/27 16:17:31;;;;;;;39.40;28.50;;;;;;;;;;6271244;28;21805;-76
2022/12/27 16:20:34;;;;;;;40.25;29.20;;;;;;;;;;6267074;28;20056;-76
2022/12/27 16:23:39;;;;;;;46.95;31.10;;;;;;;;;;6266472;28;20052;-77
2022/12/27 16:26:50;;;;;;;48.22;31.92;;;;;;;;;;6270239;28;20049;-76
2022/12/27 16:29:54;;;;;;;45.10;31.52;;;;;;;;;;6269207;28;20099;-76
2022/12/27 16:32:56;;;;;;;45.38;31.20;;;;;;;;;;6267842;28;20057;-76
2022/12/27 16:36:24;;;;;;;44.20;28.75;;;;;;;;;;6268839;28;20052;-76
2022/12/27 16:39:40;;;;;;;39.65;27.48;;;;;;;;;;6250651;28;20310;-76
2022/12/27 16:43:24;;;;;;;40.67;29.58;;;;;;;;;;6267504;28;20369;-75
2022/12/27 16:46:49;;;;;;;43.22;29.30;;;;;;;;;;6281115;28;20103;-77
2022/12/27 16:50:27;;;;;;;40.88;28.85;;;;;;;;;;6269324;28;20383;-78
2022/12/27 16:53:48;;;;;;;43.88;30.23;;;;;;;;;;6267123;28;20036;-74
2022/12/27 16:56:50;;;;;;;44.65;30.25;;;;;;;;;;6266465;28;20048;-76
2022/12/27 16:59:55;;;;;;;44.45;30.35;;;;;;;;;;6265456;28;20053;-77
2022/12/27 17:03:30;;;;;;;49.85;32.53;;;;;;;;;;6263222;28;20059;-73
2022/12/27 17:06:53;;;;;;;44.28;30.58;;;;;;;;;;6264517;28;20052;-76
2022/12/27 17:09:54;;;;;;;53.28;31.77;;;;;;;;;;6265503;28;20051;-76
2022/12/27 17:12:59;;;;;;;50.35;32.17;;;;;;;;;;6265836;28;20056;-76
2022/12/27 17:16:06;;;;;;;54.13;33.60;;;;;;;;;;6264089;28;20399;-76
2022/12/27 17:19:18;;;;;;;49.80;31.48;;;;;;;;;;6265104;28;20163;-76
2022/12/27 17:22:20;;;;;;;52.15;32.47;;;;;;;;;;6264851;28;20045;-75
2022/12/27 17:25:29;;;;;;;43.80;30.05;;;;;;;;;;6266189;28;20049;-76
2022/12/27 17:28:34;;;;;;;50.13;31.38;;;;;;;;;;6268273;28;20271;-76
2022/12/27 17:31:39;;;;;;;48.65;32.13;;;;;;;;;;6263966;28;20091;-72
2022/12/27 17:34:48;;;;;;;49.80;32.08;;;;;;;;;;6266928;28;20045;-76
2022/12/27 17:38:00;;;;;;;52.33;32.63;;;;;;;;;;6266211;28;20221;-78
2022/12/27 17:41:08;;;;;;;49.47;33.35;;;;;;;;;;6264395;28;20103;-76
2022/12/27 17:44:39;;;;;;;51.50;33.17;;;;;;;;;;6266455;28;20091;-77
2022/12/27 17:48:00;;;;;;;49.42;32.42;;;;;;;;;;6267048;28;20220;-77
2022/12/27 17:51:07;;;;;;;50.00;33.50;;;;;;;;;;6268338;28;20313;-76
2022/12/27 17:57:55;;;;;;;56.13;33.90;;;;;;;;;;6264066;28;20233;-73
2022/12/27 18:00:59;;;;;;;50.85;33.40;;;;;;;;;;6264354;28;20041;-75
2022/12/27 18:04:02;;;;;;;49.10;32.95;;;;;;;;;;6261975;28;20112;-75
2022/12/27 18:07:07;;;;;;;53.88;33.90;;;;;;;;;;6264184;28;20045;-75
2022/12/27 18:10:18;;;;;;;54.53;33.85;;;;;;;;;;6267453;28;20123;-75
2022/12/27 18:13:23;;;;;;;50.03;32.28;;;;;;;;;;6265160;28;20044;-77
2022/12/27 18:16:33;;;;;;;51.97;33.45;;;;;;;;;;6261824;28;20056;-77
2022/12/27 18:19:34;;;;;;;60.00;33.70;;;;;;;;;;6261945;28;20321;-77
2022/12/27 18:22:37;;;;;;;50.03;31.77;;;;;;;;;;6263468;28;20045;-76
2022/12/27 18:25:40;;;;;;;45.20;30.88;;;;;;;;;;6266186;28;20052;-76
2022/12/27 18:28:42;;;;;;;52.55;31.92;;;;;;;;;;6264950;28;20352;-77
2022/12/27 18:31:48;;;;;;;48.45;31.33;;;;;;;;;;6265770;28;20208;-76
2022/12/27 18:34:52;;;;;;;48.97;30.73;;;;;;;;;;6268067;28;20104;-77
2022/12/27 18:37:55;;;;;;;50.10;31.40;;;;;;;;;;6263080;28;20228;-72
2022/12/27 18:40:59;;;;;;;47.08;31.30;;;;;;;;;;6263684;28;20057;-76
2022/12/27 18:44:01;;;;;;;;;;;;;;;;;;6260771;28;20045;-74
2022/12/27 18:47:03;;;;;;;53.08;31.45;;;;;;;;;;6264551;28;19924;-76
2022/12/27 18:50:13;;;;;;;52.08;32.45;;;;;;;;;;6267109;28;20045;-75
2022/12/27 18:53:23;;;;;;;53.50;33.35;;;;;;;;;;6264453;28;20087;-73
2022/12/27 18:56:29;;;;;;;57.05;34.17;;;;;;;;;;6263301;28;20259;-74
2022/12/27 18:59:31;;;;;;;54.40;34.22;;;;;;;;;;6267262;28;20044;-72
2022/12/27 19:02:35;;;;;;;55.13;33.10;;;;;;;;;;6264409;28;20057;-74
2022/12/27 19:05:37;;;;;;;54.97;34.60;;;;;;;;;;6270095;28;20056;-77
2022/12/27 19:08:45;;;;;;;59.20;34.90;;;;;;;;;;6264839;28;20406;-76
2022/12/27 19:11:51;;;;;;;55.88;34.38;;;;;;;;;;6271044;28;20048;-76
2022/12/27 19:14:53;;;;;;;55.83;33.13;;;;;;;;;;6271697;28;20045;-77
2022/12/27 19:17:59;;;;;;;53.97;34.25;;;;;;;;;;6272099;28;20099;-75
2022/12/27 19:21:02;;;;;;;60.35;33.72;;;;;;;;;;6270533;28;20045;-76
2022/12/27 19:27:35;;;;;;;52.50;32.70;;;;;;;;;;6265300;27;20856;-76
2022/12/27 19:30:39;;;;;;;56.78;33.10;;;;;;;;;;6220100;28;20046;-76
2022/12/27 19:33:41;;;;;;;53.10;33.45;;;;;;;;;;6218792;28;20290;-79
2022/12/27 19:36:44;;;;;;;53.55;33.75;;;;;;;;;;6216160;28;20046;-79
2022/12/27 19:39:47;;;;;;;50.10;32.08;;;;;;;;;;6217709;28;20105;-75
2022/12/27 19:42:50;;;;;;;58.23;32.73;;;;;;;;;;6217073;28;20054;-79
2022/12/27 19:45:52;;;;;;;48.30;30.35;;;;;;;;;;6215940;28;20077;-77
2022/12/27 19:48:54;;;;;;;50.13;30.35;;;;;;;;;;6218335;28;20097;-79
2022/12/27 19:51:56;;;;;;;50.30;29.65;;;;;;;;;;6224845;28;20050;-78
2022/12/27 19:55:03;;;;;;;45.03;29.58;;;;;;;;;;6218446;28;20058;-76
2022/12/27 19:58:06;;;;;;;51.60;30.63;;;;;;;;;;6215145;28;20242;-74
2022/12/27 20:01:07;;;;;;;48.45;29.33;;;;;;;;;;6215909;28;20050;-76
2022/12/27 20:04:09;;;;;;;47.03;29.42;;;;;;;;;;6217436;28;20238;-77
2022/12/27 20:07:18;;;;;;;50.60;30.90;;;;;;;;;;6217052;28;20337;-76
2022/12/27 20:10:20;;;;;;;46.38;29.52;;;;;;;;;;6213852;28;20069;-76
2022/12/27 20:13:24;;;;;;;45.80;30.52;;;;;;;;;;6219533;28;20049;-77
2022/12/27 20:16:26;;;;;;;46.75;29.15;;;;;;;;;;6212383;28;20089;-79
2022/12/27 20:19:27;;;;;;;51.75;31.10;;;;;;;;;;6215195;28;20039;-79